ASP1000 CYQZ-CYZT
Flight info
| Callsign | ASP1000 |
|---|---|
| Flight time | 0h 45m |
| Altitude | 24000 |
| Route | XORUD4 XORUD DCT TETAV |
| Aircraft | B461/M-SDFGIRWY/LB1 |
Departure
| Time | 2026-04-29 00:48 |
|---|---|
| Airport | Quesnel Airport (CYQZ) |
Arrival
| Time | 2026-04-29 01:34 |
|---|---|
| Airport | Port Hardy Airport (CYZT) |
| Time | Latitude | Longitude | Altitude | Speed | Heading |
|---|---|---|---|---|---|
| 2026-04-29 00:40 | 53.02600 | -122.50691 | 1803 ft | 0 kts | 272° |
| 2026-04-29 00:45 | 53.02601 | -122.50736 | 1803 ft | 8 kts | 267° |
| 2026-04-29 00:46 | 53.02560 | -122.50869 | 1803 ft | 16 kts | 240° |
| 2026-04-29 00:46 | 53.02471 | -122.50899 | 1803 ft | 15 kts | 149° |
| 2026-04-29 00:46 | 53.02351 | -122.50781 | 1802 ft | 23 kts | 149° |
| 2026-04-29 00:46 | 53.02212 | -122.50641 | 1801 ft | 23 kts | 150° |
| 2026-04-29 00:47 | 53.02068 | -122.50501 | 1801 ft | 24 kts | 149° |
| 2026-04-29 00:47 | 53.01991 | -122.50388 | 1800 ft | 10 kts | 191° |
| 2026-04-29 00:47 | 53.01996 | -122.50440 | 1800 ft | 0 kts | 333° |
| 2026-04-29 00:48 | 53.02190 | -122.50630 | 1801 ft | 72 kts | 329° |
| 2026-04-29 00:48 | 53.02821 | -122.51246 | 1835 ft | 129 kts | 331° |
| 2026-04-29 00:48 | 53.03604 | -122.51997 | 2256 ft | 135 kts | 330° |
| 2026-04-29 00:48 | 53.04454 | -122.52849 | 2646 ft | 153 kts | 329° |
| 2026-04-29 00:49 | 53.05399 | -122.53803 | 3046 ft | 169 kts | 331° |
| 2026-04-29 00:49 | 53.06470 | -122.54868 | 3414 ft | 190 kts | 334° |
| 2026-04-29 00:49 | 53.07708 | -122.55698 | 4060 ft | 201 kts | 333° |
| 2026-04-29 00:49 | 53.08937 | -122.56915 | 4690 ft | 216 kts | 329° |
| 2026-04-29 00:50 | 53.10245 | -122.58325 | 5272 ft | 235 kts | 327° |
| 2026-04-29 00:50 | 53.11660 | -122.59870 | 5838 ft | 253 kts | 330° |
| 2026-04-29 00:50 | 53.13203 | -122.61372 | 6592 ft | 261 kts | 330° |
| 2026-04-29 00:50 | 53.14677 | -122.62826 | 7348 ft | 264 kts | 329° |
| 2026-04-29 00:51 | 53.16253 | -122.64390 | 8009 ft | 265 kts | 329° |
| 2026-04-29 00:51 | 53.17849 | -122.65960 | 8546 ft | 268 kts | 328° |
| 2026-04-29 00:51 | 53.19210 | -122.68095 | 9033 ft | 272 kts | 302° |
| 2026-04-29 00:51 | 53.19889 | -122.70905 | 9515 ft | 275 kts | 281° |
| 2026-04-29 00:52 | 53.19883 | -122.73882 | 9984 ft | 279 kts | 256° |
| 2026-04-29 00:52 | 53.18970 | -122.76829 | 10395 ft | 287 kts | 238° |
| 2026-04-29 00:52 | 53.17805 | -122.79316 | 10533 ft | 301 kts | 229° |
| 2026-04-29 00:52 | 53.16318 | -122.81947 | 10644 ft | 314 kts | 228° |
| 2026-04-29 00:53 | 53.14806 | -122.84589 | 10909 ft | 323 kts | 227° |
| 2026-04-29 00:53 | 53.13185 | -122.87224 | 11383 ft | 326 kts | 225° |
| 2026-04-29 00:53 | 53.11556 | -122.89828 | 11886 ft | 327 kts | 228° |
| 2026-04-29 00:53 | 53.10032 | -122.92609 | 12344 ft | 329 kts | 229° |
| 2026-04-29 00:54 | 53.08483 | -122.95462 | 12797 ft | 332 kts | 229° |
| 2026-04-29 00:54 | 53.06947 | -122.98277 | 13219 ft | 334 kts | 229° |
| 2026-04-29 00:54 | 53.05376 | -123.01148 | 13632 ft | 337 kts | 229° |
| 2026-04-29 00:54 | 53.03795 | -123.04037 | 14023 ft | 340 kts | 229° |
| 2026-04-29 00:55 | 53.02219 | -123.06915 | 14378 ft | 343 kts | 229° |
| 2026-04-29 00:55 | 53.00599 | -123.09869 | 14747 ft | 346 kts | 229° |
| 2026-04-29 00:55 | 52.98978 | -123.12822 | 15101 ft | 348 kts | 229° |
| 2026-04-29 00:55 | 52.97348 | -123.15788 | 15429 ft | 351 kts | 229° |
| 2026-04-29 00:56 | 52.95707 | -123.18772 | 15748 ft | 353 kts | 230° |
| 2026-04-29 00:56 | 52.94051 | -123.21778 | 16063 ft | 355 kts | 230° |
| 2026-04-29 00:56 | 52.92393 | -123.24786 | 16370 ft | 358 kts | 230° |
| 2026-04-29 00:56 | 52.90720 | -123.27816 | 16652 ft | 360 kts | 230° |
| 2026-04-29 00:57 | 52.89029 | -123.30877 | 16949 ft | 361 kts | 230° |
| 2026-04-29 00:57 | 52.87317 | -123.33971 | 17258 ft | 362 kts | 230° |
| 2026-04-29 00:57 | 52.85659 | -123.36964 | 17509 ft | 364 kts | 231° |
| 2026-04-29 00:57 | 52.84080 | -123.39813 | 17744 ft | 366 kts | 231° |
| 2026-04-29 00:58 | 52.82365 | -123.42902 | 17995 ft | 368 kts | 231° |
| 2026-04-29 00:58 | 52.80623 | -123.46036 | 18192 ft | 370 kts | 231° |
| 2026-04-29 00:58 | 52.78900 | -123.49134 | 18433 ft | 372 kts | 231° |
| 2026-04-29 00:58 | 52.77139 | -123.52296 | 18668 ft | 373 kts | 231° |
| 2026-04-29 00:59 | 52.75380 | -123.55447 | 18896 ft | 375 kts | 231° |
| 2026-04-29 00:59 | 52.73617 | -123.58602 | 19108 ft | 376 kts | 231° |
| 2026-04-29 00:59 | 52.71854 | -123.61753 | 19331 ft | 378 kts | 231° |
| 2026-04-29 00:59 | 52.70065 | -123.64948 | 19543 ft | 379 kts | 231° |
| 2026-04-29 01:00 | 52.68286 | -123.68121 | 19758 ft | 380 kts | 230° |
| 2026-04-29 01:00 | 52.66578 | -123.71163 | 19954 ft | 381 kts | 231° |
| 2026-04-29 01:00 | 52.64780 | -123.74361 | 20151 ft | 383 kts | 231° |
| 2026-04-29 01:00 | 52.63030 | -123.77470 | 20347 ft | 384 kts | 231° |
| 2026-04-29 01:01 | 52.61219 | -123.80685 | 20524 ft | 385 kts | 231° |
| 2026-04-29 01:01 | 52.59430 | -123.83855 | 20709 ft | 387 kts | 231° |
| 2026-04-29 01:01 | 52.57604 | -123.87086 | 20901 ft | 387 kts | 231° |
| 2026-04-29 01:01 | 52.55793 | -123.90287 | 21061 ft | 389 kts | 231° |
| 2026-04-29 01:02 | 52.53949 | -123.93542 | 21226 ft | 390 kts | 231° |
| 2026-04-29 01:02 | 52.52091 | -123.96816 | 21387 ft | 391 kts | 231° |
| 2026-04-29 01:02 | 52.50258 | -124.00043 | 21555 ft | 391 kts | 231° |
| 2026-04-29 01:02 | 52.48394 | -124.03321 | 21719 ft | 392 kts | 231° |
| 2026-04-29 01:03 | 52.46553 | -124.06554 | 21874 ft | 393 kts | 231° |
| 2026-04-29 01:03 | 52.44680 | -124.09839 | 22016 ft | 394 kts | 231° |
| 2026-04-29 01:03 | 52.42804 | -124.13122 | 22177 ft | 395 kts | 231° |
| 2026-04-29 01:03 | 52.40939 | -124.16383 | 22318 ft | 396 kts | 231° |
| 2026-04-29 01:04 | 52.39050 | -124.19682 | 22475 ft | 396 kts | 231° |
| 2026-04-29 01:04 | 52.37174 | -124.22955 | 22616 ft | 397 kts | 231° |
| 2026-04-29 01:04 | 52.35311 | -124.26199 | 22766 ft | 397 kts | 231° |
| 2026-04-29 01:04 | 52.33425 | -124.29480 | 22871 ft | 398 kts | 231° |
| 2026-04-29 01:05 | 52.31511 | -124.32806 | 23001 ft | 399 kts | 231° |
| 2026-04-29 01:05 | 52.29612 | -124.36100 | 23118 ft | 400 kts | 232° |
| 2026-04-29 01:05 | 52.27703 | -124.39408 | 23216 ft | 402 kts | 231° |
| 2026-04-29 01:05 | 52.25809 | -124.42687 | 23320 ft | 403 kts | 232° |
| 2026-04-29 01:06 | 52.23883 | -124.46014 | 23453 ft | 403 kts | 232° |
| 2026-04-29 01:06 | 52.21968 | -124.49317 | 23586 ft | 403 kts | 231° |
| 2026-04-29 01:06 | 52.20055 | -124.52615 | 23688 ft | 404 kts | 232° |
| 2026-04-29 01:06 | 52.18118 | -124.55948 | 23805 ft | 404 kts | 232° |
| 2026-04-29 01:07 | 52.16177 | -124.59283 | 23899 ft | 405 kts | 232° |
| 2026-04-29 01:07 | 52.14251 | -124.62589 | 24012 ft | 406 kts | 232° |
| 2026-04-29 01:07 | 52.12322 | -124.65897 | 24085 ft | 407 kts | 231° |
| 2026-04-29 01:07 | 52.10372 | -124.69235 | 24123 ft | 408 kts | 231° |
| 2026-04-29 01:08 | 52.08469 | -124.72486 | 24127 ft | 406 kts | 231° |
| 2026-04-29 01:08 | 52.06535 | -124.75787 | 24133 ft | 405 kts | 231° |
| 2026-04-29 01:08 | 52.04621 | -124.79047 | 24135 ft | 403 kts | 231° |
| 2026-04-29 01:08 | 52.02749 | -124.82234 | 24137 ft | 402 kts | 231° |
| 2026-04-29 01:09 | 52.00824 | -124.85506 | 24135 ft | 401 kts | 231° |
| 2026-04-29 01:09 | 51.98917 | -124.88743 | 24135 ft | 400 kts | 231° |
| 2026-04-29 01:09 | 51.96997 | -124.91997 | 24140 ft | 399 kts | 232° |
| 2026-04-29 01:09 | 51.95090 | -124.95229 | 24142 ft | 398 kts | 231° |
| 2026-04-29 01:10 | 51.93180 | -124.98460 | 24142 ft | 398 kts | 231° |
| 2026-04-29 01:10 | 51.91259 | -125.01705 | 24139 ft | 397 kts | 231° |
| 2026-04-29 01:10 | 51.89368 | -125.04895 | 24133 ft | 397 kts | 231° |
| 2026-04-29 01:10 | 51.87465 | -125.08102 | 24123 ft | 396 kts | 231° |
| 2026-04-29 01:11 | 51.85549 | -125.11325 | 24114 ft | 397 kts | 231° |
| 2026-04-29 01:11 | 51.83687 | -125.14455 | 24108 ft | 398 kts | 231° |
| 2026-04-29 01:11 | 51.81935 | -125.17398 | 24106 ft | 398 kts | 231° |
| 2026-04-29 01:11 | 51.80061 | -125.20540 | 24108 ft | 399 kts | 231° |
| 2026-04-29 01:12 | 51.78135 | -125.23765 | 24108 ft | 399 kts | 231° |
| 2026-04-29 01:12 | 51.76230 | -125.26950 | 24103 ft | 400 kts | 231° |
| 2026-04-29 01:12 | 51.74299 | -125.30174 | 24102 ft | 400 kts | 231° |
| 2026-04-29 01:12 | 51.72358 | -125.33411 | 24103 ft | 400 kts | 231° |
| 2026-04-29 01:13 | 51.70419 | -125.36639 | 24108 ft | 400 kts | 231° |
| 2026-04-29 01:13 | 51.68499 | -125.39835 | 23991 ft | 404 kts | 231° |
| 2026-04-29 01:13 | 51.66543 | -125.43091 | 23686 ft | 411 kts | 231° |
| 2026-04-29 01:13 | 51.64536 | -125.46426 | 23372 ft | 418 kts | 231° |
| 2026-04-29 01:14 | 51.62517 | -125.49774 | 23067 ft | 423 kts | 231° |
| 2026-04-29 01:14 | 51.60464 | -125.53172 | 22755 ft | 425 kts | 231° |
| 2026-04-29 01:14 | 51.58402 | -125.56573 | 22440 ft | 423 kts | 231° |
| 2026-04-29 01:14 | 51.56366 | -125.59927 | 22134 ft | 421 kts | 231° |
| 2026-04-29 01:15 | 51.54330 | -125.63275 | 21825 ft | 415 kts | 231° |
| 2026-04-29 01:15 | 51.52343 | -125.66539 | 21524 ft | 409 kts | 230° |
| 2026-04-29 01:15 | 51.50353 | -125.69807 | 21226 ft | 405 kts | 230° |
| 2026-04-29 01:15 | 51.48415 | -125.72982 | 20925 ft | 402 kts | 230° |
| 2026-04-29 01:16 | 51.46473 | -125.76164 | 20591 ft | 399 kts | 230° |
| 2026-04-29 01:16 | 51.44844 | -125.78827 | 20266 ft | 399 kts | 230° |
| 2026-04-29 01:16 | 51.42912 | -125.81984 | 19872 ft | 399 kts | 230° |
| 2026-04-29 01:16 | 51.40967 | -125.85156 | 19481 ft | 399 kts | 230° |
| 2026-04-29 01:17 | 51.39439 | -125.87646 | 19177 ft | 399 kts | 230° |
| 2026-04-29 01:17 | 51.37496 | -125.90810 | 18778 ft | 398 kts | 230° |
| 2026-04-29 01:17 | 51.35560 | -125.93958 | 18382 ft | 397 kts | 230° |
| 2026-04-29 01:17 | 51.33647 | -125.97064 | 17987 ft | 396 kts | 230° |
| 2026-04-29 01:18 | 51.32167 | -125.99464 | 17676 ft | 396 kts | 230° |
| 2026-04-29 01:18 | 51.28313 | -126.05707 | 16927 ft | 395 kts | 230° |
| 2026-04-29 01:18 | 51.26411 | -126.08781 | 16535 ft | 394 kts | 230° |
| 2026-04-29 01:19 | 51.24486 | -126.11889 | 16182 ft | 394 kts | 230° |
| 2026-04-29 01:19 | 51.22564 | -126.14989 | 15812 ft | 393 kts | 230° |
| 2026-04-29 01:19 | 51.20644 | -126.18082 | 15463 ft | 393 kts | 230° |
| 2026-04-29 01:19 | 51.18724 | -126.21171 | 15102 ft | 393 kts | 230° |
| 2026-04-29 01:20 | 51.16825 | -126.24222 | 14741 ft | 389 kts | 229° |
| 2026-04-29 01:20 | 51.14932 | -126.27258 | 14370 ft | 385 kts | 230° |
| 2026-04-29 01:20 | 51.13057 | -126.30262 | 13999 ft | 382 kts | 230° |
| 2026-04-29 01:20 | 51.11190 | -126.33249 | 13634 ft | 379 kts | 229° |
| 2026-04-29 01:21 | 51.09339 | -126.36209 | 13250 ft | 377 kts | 229° |
| 2026-04-29 01:21 | 51.07510 | -126.39130 | 12901 ft | 374 kts | 229° |
| 2026-04-29 01:21 | 51.05677 | -126.42055 | 12540 ft | 372 kts | 229° |
| 2026-04-29 01:21 | 51.03865 | -126.44943 | 12163 ft | 368 kts | 229° |
| 2026-04-29 01:22 | 51.02079 | -126.47785 | 11773 ft | 363 kts | 229° |
| 2026-04-29 01:22 | 51.00318 | -126.50584 | 11395 ft | 358 kts | 229° |
| 2026-04-29 01:22 | 50.98572 | -126.53357 | 11065 ft | 352 kts | 229° |
| 2026-04-29 01:22 | 50.96907 | -126.55994 | 10726 ft | 332 kts | 229° |
| 2026-04-29 01:23 | 50.95320 | -126.58501 | 10392 ft | 314 kts | 229° |
| 2026-04-29 01:23 | 50.93802 | -126.60901 | 10042 ft | 299 kts | 229° |
| 2026-04-29 01:23 | 50.92379 | -126.63148 | 9766 ft | 287 kts | 230° |
| 2026-04-29 01:23 | 50.90984 | -126.65353 | 9496 ft | 280 kts | 229° |
| 2026-04-29 01:24 | 50.89612 | -126.67520 | 9228 ft | 277 kts | 229° |
| 2026-04-29 01:24 | 50.88237 | -126.69695 | 8955 ft | 282 kts | 228° |
| 2026-04-29 01:24 | 50.86849 | -126.71888 | 8677 ft | 285 kts | 228° |
| 2026-04-29 01:24 | 50.85690 | -126.73717 | 8445 ft | 287 kts | 228° |
| 2026-04-29 01:25 | 50.84227 | -126.76026 | 8159 ft | 288 kts | 228° |
| 2026-04-29 01:25 | 50.82829 | -126.78226 | 7891 ft | 283 kts | 228° |
| 2026-04-29 01:25 | 50.81437 | -126.80415 | 7616 ft | 278 kts | 228° |
| 2026-04-29 01:25 | 50.80165 | -126.82413 | 7358 ft | 273 kts | 227° |
| 2026-04-29 01:26 | 50.78832 | -126.84506 | 7092 ft | 269 kts | 227° |
| 2026-04-29 01:26 | 50.77520 | -126.86566 | 6841 ft | 265 kts | 227° |
| 2026-04-29 01:26 | 50.76215 | -126.88613 | 6587 ft | 262 kts | 227° |
| 2026-04-29 01:26 | 50.74927 | -126.90632 | 6342 ft | 259 kts | 227° |
| 2026-04-29 01:27 | 50.73667 | -126.92607 | 6096 ft | 257 kts | 227° |
| 2026-04-29 01:27 | 50.72397 | -126.94596 | 5843 ft | 255 kts | 226° |
| 2026-04-29 01:27 | 50.71166 | -126.96525 | 5599 ft | 251 kts | 227° |
| 2026-04-29 01:27 | 50.69936 | -126.98450 | 5363 ft | 247 kts | 226° |
| 2026-04-29 01:28 | 50.68716 | -127.00359 | 5129 ft | 244 kts | 227° |
| 2026-04-29 01:28 | 50.67535 | -127.02201 | 4886 ft | 241 kts | 224° |
| 2026-04-29 01:28 | 50.66089 | -127.03552 | 4675 ft | 239 kts | 208° |
| 2026-04-29 01:28 | 50.64648 | -127.04778 | 4450 ft | 237 kts | 210° |
| 2026-04-29 01:29 | 50.63210 | -127.06056 | 4217 ft | 235 kts | 210° |
| 2026-04-29 01:29 | 50.61790 | -127.07305 | 3987 ft | 234 kts | 210° |
| 2026-04-29 01:29 | 50.60372 | -127.08546 | 3770 ft | 232 kts | 209° |
| 2026-04-29 01:29 | 50.59024 | -127.09934 | 3506 ft | 231 kts | 227° |
| 2026-04-29 01:30 | 50.58290 | -127.12092 | 3272 ft | 227 kts | 261° |
| 2026-04-29 01:30 | 50.58430 | -127.14500 | 3047 ft | 221 kts | 296° |
| 2026-04-29 01:30 | 50.59090 | -127.16684 | 2798 ft | 220 kts | 295° |
| 2026-04-29 01:30 | 50.59656 | -127.18919 | 2540 ft | 221 kts | 292° |
| 2026-04-29 01:31 | 50.60272 | -127.21115 | 2284 ft | 219 kts | 300° |
| 2026-04-29 01:31 | 50.61036 | -127.23135 | 2022 ft | 215 kts | 315° |
| 2026-04-29 01:31 | 50.62037 | -127.24857 | 1742 ft | 210 kts | 313° |
| 2026-04-29 01:31 | 50.62982 | -127.26595 | 1467 ft | 206 kts | 312° |
| 2026-04-29 01:32 | 50.63860 | -127.28295 | 1201 ft | 194 kts | 310° |
| 2026-04-29 01:32 | 50.64627 | -127.29865 | 991 ft | 168 kts | 310° |
| 2026-04-29 01:32 | 50.65326 | -127.31161 | 771 ft | 143 kts | 312° |
| 2026-04-29 01:32 | 50.65922 | -127.32280 | 576 ft | 121 kts | 311° |
| 2026-04-29 01:33 | 50.66428 | -127.33226 | 411 ft | 111 kts | 312° |
| 2026-04-29 01:33 | 50.66922 | -127.34154 | 285 ft | 110 kts | 312° |
| 2026-04-29 01:33 | 50.67414 | -127.35077 | 157 ft | 109 kts | 310° |
| 2026-04-29 01:33 | 50.67894 | -127.35978 | 37 ft | 100 kts | 311° |
| 2026-04-29 01:34 | 50.68197 | -127.36536 | 47 ft | 32 kts | 310° |
| 2026-04-29 01:34 | 50.68314 | -127.36756 | 53 ft | 25 kts | 309° |
| 2026-04-29 01:34 | 50.68430 | -127.36970 | 56 ft | 26 kts | 311° |
| 2026-04-29 01:34 | 50.68555 | -127.37197 | 57 ft | 22 kts | 311° |
| 2026-04-29 01:35 | 50.68565 | -127.37350 | 58 ft | 15 kts | 226° |
| 2026-04-29 01:35 | 50.68483 | -127.37441 | 61 ft | 13 kts | 202° |
| 2026-04-29 01:35 | 50.68402 | -127.37496 | 64 ft | 11 kts | 204° |
| 2026-04-29 01:35 | 50.68370 | -127.37573 | 67 ft | 8 kts | 285° |
| 2026-04-29 01:36 | 50.68366 | -127.37599 | 68 ft | 0 kts | 202° |